sensor_id;sensor_type;location;lat;lon;timestamp;P1;durP1;ratioP1;P2;durP2;ratioP2
75851;SDS011;64500;52.632;20.656;2022-12-07T00:01:20;30.20;;;17.40;;
75851;SDS011;64500;52.632;20.656;2022-12-07T00:03:48;26.40;;;18.00;;
75851;SDS011;64500;52.632;20.656;2022-12-07T00:06:17;29.80;;;18.70;;
75851;SDS011;64500;52.632;20.656;2022-12-07T00:08:45;37.80;;;20.90;;
75851;SDS011;64500;52.632;20.656;2022-12-07T00:11:15;34.60;;;20.00;;
75851;SDS011;64500;52.632;20.656;2022-12-07T00:13:46;33.10;;;20.00;;
75851;SDS011;64500;52.632;20.656;2022-12-07T00:16:16;30.60;;;18.30;;
75851;SDS011;64500;52.632;20.656;2022-12-07T00:18:45;29.30;;;18.60;;
75851;SDS011;64500;52.632;20.656;2022-12-07T00:21:14;28.50;;;17.50;;
75851;SDS011;64500;52.632;20.656;2022-12-07T00:23:42;30.20;;;19.00;;
75851;SDS011;64500;52.632;20.656;2022-12-07T00:26:11;28.80;;;18.40;;
75851;SDS011;64500;52.632;20.656;2022-12-07T00:28:49;31.70;;;17.40;;
75851;SDS011;64500;52.632;20.656;2022-12-07T00:31:19;29.90;;;17.50;;
75851;SDS011;64500;52.632;20.656;2022-12-07T00:33:47;31.20;;;18.70;;
75851;SDS011;64500;52.632;20.656;2022-12-07T00:36:15;24.70;;;15.70;;
75851;SDS011;64500;52.632;20.656;2022-12-07T00:38:44;29.20;;;17.90;;
75851;SDS011;64500;52.632;20.656;2022-12-07T00:41:16;26.00;;;15.90;;
75851;SDS011;64500;52.632;20.656;2022-12-07T00:43:45;26.30;;;16.10;;
75851;SDS011;64500;52.632;20.656;2022-12-07T00:46:13;27.80;;;16.50;;
75851;SDS011;64500;52.632;20.656;2022-12-07T00:48:41;26.80;;;16.50;;
75851;SDS011;64500;52.632;20.656;2022-12-07T00:51:12;26.40;;;16.70;;
75851;SDS011;64500;52.632;20.656;2022-12-07T00:53:40;25.60;;;16.40;;
75851;SDS011;64500;52.632;20.656;2022-12-07T00:58:35;25.50;;;16.70;;
75851;SDS011;64500;52.632;20.656;2022-12-07T01:01:03;26.40;;;16.40;;
75851;SDS011;64500;52.632;20.656;2022-12-07T01:03:32;26.30;;;16.10;;
75851;SDS011;64500;52.632;20.656;2022-12-07T01:05:59;28.90;;;17.40;;
75851;SDS011;64500;52.632;20.656;2022-12-07T01:08:27;25.70;;;16.50;;
75851;SDS011;64500;52.632;20.656;2022-12-07T01:10:59;25.70;;;16.40;;
75851;SDS011;64500;52.632;20.656;2022-12-07T01:13:26;25.70;;;16.20;;
75851;SDS011;64500;52.632;20.656;2022-12-07T01:15:58;27.40;;;16.40;;
75851;SDS011;64500;52.632;20.656;2022-12-07T01:18:26;25.50;;;16.00;;
75851;SDS011;64500;52.632;20.656;2022-12-07T01:23:33;26.40;;;16.70;;
75851;SDS011;64500;52.632;20.656;2022-12-07T01:26:03;28.40;;;16.70;;
75851;SDS011;64500;52.632;20.656;2022-12-07T01:28:32;28.10;;;17.30;;
75851;SDS011;64500;52.632;20.656;2022-12-07T01:33:29;28.20;;;17.40;;
75851;SDS011;64500;52.632;20.656;2022-12-07T01:36:17;28.20;;;17.70;;
75851;SDS011;64500;52.632;20.656;2022-12-07T01:38:45;27.80;;;16.50;;
75851;SDS011;64500;52.632;20.656;2022-12-07T01:41:13;30.90;;;17.50;;
75851;SDS011;64500;52.632;20.656;2022-12-07T01:44:07;28.30;;;17.00;;
75851;SDS011;64500;52.632;20.656;2022-12-07T01:46:56;33.00;;;18.30;;
75851;SDS011;64500;52.632;20.656;2022-12-07T01:49:39;31.30;;;18.10;;
75851;SDS011;64500;52.632;20.656;2022-12-07T01:52:29;27.40;;;16.70;;
75851;SDS011;64500;52.632;20.656;2022-12-07T01:55:03;31.40;;;18.40;;
75851;SDS011;64500;52.632;20.656;2022-12-07T01:57:34;27.80;;;17.50;;
75851;SDS011;64500;52.632;20.656;2022-12-07T02:00:06;29.20;;;16.80;;
75851;SDS011;64500;52.632;20.656;2022-12-07T02:02:35;27.20;;;16.30;;
75851;SDS011;64500;52.632;20.656;2022-12-07T02:05:05;29.00;;;17.00;;
75851;SDS011;64500;52.632;20.656;2022-12-07T02:07:34;29.90;;;17.20;;
75851;SDS011;64500;52.632;20.656;2022-12-07T02:12:44;28.20;;;17.20;;
75851;SDS011;64500;52.632;20.656;2022-12-07T02:15:15;28.10;;;17.30;;
75851;SDS011;64500;52.632;20.656;2022-12-07T02:17:58;27.70;;;17.50;;
75851;SDS011;64500;52.632;20.656;2022-12-07T02:20:42;26.80;;;15.40;;
75851;SDS011;64500;52.632;20.656;2022-12-07T02:29:26;27.10;;;16.80;;
75851;SDS011;64500;52.632;20.656;2022-12-07T02:32:02;27.70;;;16.80;;
75851;SDS011;64500;52.632;20.656;2022-12-07T02:37:13;27.00;;;17.30;;
75851;SDS011;64500;52.632;20.656;2022-12-07T02:39:55;27.70;;;16.50;;
75851;SDS011;64500;52.632;20.656;2022-12-07T02:42:31;27.20;;;17.20;;
75851;SDS011;64500;52.632;20.656;2022-12-07T02:45:03;27.50;;;16.20;;
75851;SDS011;64500;52.632;20.656;2022-12-07T02:47:33;27.20;;;16.40;;
75851;SDS011;64500;52.632;20.656;2022-12-07T02:50:05;27.40;;;16.50;;
75851;SDS011;64500;52.632;20.656;2022-12-07T02:52:33;23.00;;;13.90;;
75851;SDS011;64500;52.632;20.656;2022-12-07T02:55:00;25.30;;;15.00;;
75851;SDS011;64500;52.632;20.656;2022-12-07T03:00:17;23.00;;;14.10;;
75851;SDS011;64500;52.632;20.656;2022-12-07T03:05:48;22.60;;;13.60;;
75851;SDS011;64500;52.632;20.656;2022-12-07T03:08:23;19.20;;;12.20;;
75851;SDS011;64500;52.632;20.656;2022-12-07T03:13:55;23.60;;;12.70;;
75851;SDS011;64500;52.632;20.656;2022-12-07T03:16:30;21.30;;;12.30;;
75851;SDS011;64500;52.632;20.656;2022-12-07T03:19:04;20.70;;;13.30;;
75851;SDS011;64500;52.632;20.656;2022-12-07T03:21:38;18.40;;;10.90;;
75851;SDS011;64500;52.632;20.656;2022-12-07T03:24:51;20.50;;;11.50;;
75851;SDS011;64500;52.632;20.656;2022-12-07T03:27:13;21.60;;;12.10;;
75851;SDS011;64500;52.632;20.656;2022-12-07T03:40:49;18.70;;;10.70;;
75851;SDS011;64500;52.632;20.656;2022-12-07T03:43:23;20.60;;;11.90;;
75851;SDS011;64500;52.632;20.656;2022-12-07T03:45:58;15.00;;;8.20;;
75851;SDS011;64500;52.632;20.656;2022-12-07T03:48:37;15.90;;;9.30;;
75851;SDS011;64500;52.632;20.656;2022-12-07T03:51:24;18.50;;;9.90;;
75851;SDS011;64500;52.632;20.656;2022-12-07T03:54:13;17.40;;;9.70;;
75851;SDS011;64500;52.632;20.656;2022-12-07T03:56:47;19.10;;;10.10;;
75851;SDS011;64500;52.632;20.656;2022-12-07T03:59:16;18.50;;;10.80;;
75851;SDS011;64500;52.632;20.656;2022-12-07T04:01:44;18.20;;;11.10;;
75851;SDS011;64500;52.632;20.656;2022-12-07T04:04:17;17.00;;;9.90;;
75851;SDS011;64500;52.632;20.656;2022-12-07T04:06:45;17.80;;;11.10;;
75851;SDS011;64500;52.632;20.656;2022-12-07T04:09:12;17.80;;;10.60;;
75851;SDS011;64500;52.632;20.656;2022-12-07T04:11:40;16.40;;;9.40;;
75851;SDS011;64500;52.632;20.656;2022-12-07T04:14:07;15.70;;;9.50;;
75851;SDS011;64500;52.632;20.656;2022-12-07T04:16:55;16.80;;;10.30;;
75851;SDS011;64500;52.632;20.656;2022-12-07T04:19:24;16.80;;;9.50;;
75851;SDS011;64500;52.632;20.656;2022-12-07T04:21:54;17.50;;;9.40;;
75851;SDS011;64500;52.632;20.656;2022-12-07T04:24:22;15.90;;;9.60;;
75851;SDS011;64500;52.632;20.656;2022-12-07T04:26:50;17.30;;;11.20;;
75851;SDS011;64500;52.632;20.656;2022-12-07T04:29:17;16.00;;;9.70;;
75851;SDS011;64500;52.632;20.656;2022-12-07T04:31:44;15.30;;;9.30;;
75851;SDS011;64500;52.632;20.656;2022-12-07T04:34:12;17.90;;;11.20;;
75851;SDS011;64500;52.632;20.656;2022-12-07T04:36:40;17.60;;;10.50;;
75851;SDS011;64500;52.632;20.656;2022-12-07T04:39:09;17.60;;;9.80;;
75851;SDS011;64500;52.632;20.656;2022-12-07T04:41:44;18.10;;;10.00;;
75851;SDS011;64500;52.632;20.656;2022-12-07T04:44:11;19.50;;;10.60;;
75851;SDS011;64500;52.632;20.656;2022-12-07T04:46:41;15.70;;;9.80;;
75851;SDS011;64500;52.632;20.656;2022-12-07T04:49:09;18.00;;;9.70;;
75851;SDS011;64500;52.632;20.656;2022-12-07T04:51:36;16.10;;;9.10;;
75851;SDS011;64500;52.632;20.656;2022-12-07T04:54:03;17.20;;;9.50;;
75851;SDS011;64500;52.632;20.656;2022-12-07T04:56:31;17.40;;;8.90;;
75851;SDS011;64500;52.632;20.656;2022-12-07T04:58:59;19.40;;;11.10;;
75851;SDS011;64500;52.632;20.656;2022-12-07T05:01:25;20.40;;;10.10;;
75851;SDS011;64500;52.632;20.656;2022-12-07T05:03:52;17.70;;;10.00;;
75851;SDS011;64500;52.632;20.656;2022-12-07T05:06:19;17.50;;;9.40;;
75851;SDS011;64500;52.632;20.656;2022-12-07T05:08:46;16.70;;;9.90;;
75851;SDS011;64500;52.632;20.656;2022-12-07T05:11:14;16.70;;;9.90;;
75851;SDS011;64500;52.632;20.656;2022-12-07T05:14:03;16.20;;;9.20;;
75851;SDS011;64500;52.632;20.656;2022-12-07T05:16:31;17.30;;;10.00;;
75851;SDS011;64500;52.632;20.656;2022-12-07T05:18:59;15.40;;;8.50;;
75851;SDS011;64500;52.632;20.656;2022-12-07T05:21:26;14.00;;;8.50;;
75851;SDS011;64500;52.632;20.656;2022-12-07T05:23:53;13.10;;;7.50;;
75851;SDS011;64500;52.632;20.656;2022-12-07T05:26:20;16.10;;;9.40;;
75851;SDS011;64500;52.632;20.656;2022-12-07T05:28:54;14.70;;;8.10;;
75851;SDS011;64500;52.632;20.656;2022-12-07T05:31:23;16.20;;;9.50;;
75851;SDS011;64500;52.632;20.656;2022-12-07T05:33:51;11.40;;;6.50;;
75851;SDS011;64500;52.632;20.656;2022-12-07T05:36:18;13.90;;;7.20;;
75851;SDS011;64500;52.632;20.656;2022-12-07T05:38:45;12.00;;;6.10;;
75851;SDS011;64500;52.632;20.656;2022-12-07T05:41:14;11.80;;;6.00;;
75851;SDS011;64500;52.632;20.656;2022-12-07T05:44:02;11.60;;;6.30;;
75851;SDS011;64500;52.632;20.656;2022-12-07T05:46:30;15.00;;;8.30;;
75851;SDS011;64500;52.632;20.656;2022-12-07T05:48:57;12.30;;;6.60;;
75851;SDS011;64500;52.632;20.656;2022-12-07T05:51:24;10.20;;;5.60;;
75851;SDS011;64500;52.632;20.656;2022-12-07T05:53:51;13.40;;;7.60;;
75851;SDS011;64500;52.632;20.656;2022-12-07T05:56:18;11.80;;;5.70;;
75851;SDS011;64500;52.632;20.656;2022-12-07T05:58:45;11.30;;;6.10;;
75851;SDS011;64500;52.632;20.656;2022-12-07T06:01:30;12.00;;;6.20;;
75851;SDS011;64500;52.632;20.656;2022-12-07T06:03:57;10.40;;;5.30;;
75851;SDS011;64500;52.632;20.656;2022-12-07T06:06:24;10.50;;;6.10;;
75851;SDS011;64500;52.632;20.656;2022-12-07T06:08:51;12.70;;;6.80;;
75851;SDS011;64500;52.632;20.656;2022-12-07T06:11:18;9.90;;;5.50;;
75851;SDS011;64500;52.632;20.656;2022-12-07T06:14:04;10.50;;;5.40;;
75851;SDS011;64500;52.632;20.656;2022-12-07T06:16:31;10.20;;;5.40;;
75851;SDS011;64500;52.632;20.656;2022-12-07T06:18:57;12.20;;;6.70;;
75851;SDS011;64500;52.632;20.656;2022-12-07T06:21:24;11.60;;;6.20;;
75851;SDS011;64500;52.632;20.656;2022-12-07T06:23:53;10.70;;;5.60;;
75851;SDS011;64500;52.632;20.656;2022-12-07T06:26:20;11.80;;;6.40;;
75851;SDS011;64500;52.632;20.656;2022-12-07T06:28:48;11.30;;;6.20;;
75851;SDS011;64500;52.632;20.656;2022-12-07T06:31:15;10.90;;;5.60;;
75851;SDS011;64500;52.632;20.656;2022-12-07T06:33:41;11.80;;;5.90;;
75851;SDS011;64500;52.632;20.656;2022-12-07T06:36:09;10.50;;;5.90;;
75851;SDS011;64500;52.632;20.656;2022-12-07T06:38:36;10.70;;;5.30;;
75851;SDS011;64500;52.632;20.656;2022-12-07T06:41:04;9.80;;;5.20;;
75851;SDS011;64500;52.632;20.656;2022-12-07T06:43:32;11.90;;;6.30;;
75851;SDS011;64500;52.632;20.656;2022-12-07T06:45:59;12.20;;;7.40;;
75851;SDS011;64500;52.632;20.656;2022-12-07T06:48:26;13.70;;;7.20;;
75851;SDS011;64500;52.632;20.656;2022-12-07T06:50:55;13.20;;;7.10;;
75851;SDS011;64500;52.632;20.656;2022-12-07T06:53:22;12.10;;;6.90;;
75851;SDS011;64500;52.632;20.656;2022-12-07T06:55:49;12.10;;;6.50;;
75851;SDS011;64500;52.632;20.656;2022-12-07T06:58:16;11.10;;;5.50;;
75851;SDS011;64500;52.632;20.656;2022-12-07T07:00:43;10.80;;;5.70;;
75851;SDS011;64500;52.632;20.656;2022-12-07T07:03:11;10.40;;;5.00;;
75851;SDS011;64500;52.632;20.656;2022-12-07T07:05:38;10.70;;;5.30;;
75851;SDS011;64500;52.632;20.656;2022-12-07T07:08:05;11.20;;;5.90;;
75851;SDS011;64500;52.632;20.656;2022-12-07T07:10:32;11.10;;;6.00;;
75851;SDS011;64500;52.632;20.656;2022-12-07T07:13:00;10.00;;;5.10;;
75851;SDS011;64500;52.632;20.656;2022-12-07T07:15:27;9.40;;;4.90;;
75851;SDS011;64500;52.632;20.656;2022-12-07T07:17:54;9.40;;;4.70;;
75851;SDS011;64500;52.632;20.656;2022-12-07T07:20:20;8.90;;;4.70;;
75851;SDS011;64500;52.632;20.656;2022-12-07T07:22:48;9.90;;;5.20;;
75851;SDS011;64500;52.632;20.656;2022-12-07T07:25:15;8.90;;;5.40;;
75851;SDS011;64500;52.632;20.656;2022-12-07T07:27:42;10.90;;;4.60;;
75851;SDS011;64500;52.632;20.656;2022-12-07T07:30:09;9.30;;;4.50;;
75851;SDS011;64500;52.632;20.656;2022-12-07T07:32:36;8.00;;;4.30;;
75851;SDS011;64500;52.632;20.656;2022-12-07T07:35:03;8.80;;;4.50;;
75851;SDS011;64500;52.632;20.656;2022-12-07T07:37:31;10.60;;;4.70;;
75851;SDS011;64500;52.632;20.656;2022-12-07T07:39:58;8.90;;;4.80;;
75851;SDS011;64500;52.632;20.656;2022-12-07T07:42:25;12.70;;;5.00;;
75851;SDS011;64500;52.632;20.656;2022-12-07T07:44:51;41.70;;;7.90;;
75851;SDS011;64500;52.632;20.656;2022-12-07T07:47:18;33.50;;;7.50;;
75851;SDS011;64500;52.632;20.656;2022-12-07T07:49:45;52.80;;;9.40;;
75851;SDS011;64500;52.632;20.656;2022-12-07T07:52:12;58.20;;;10.20;;
75851;SDS011;64500;52.632;20.656;2022-12-07T07:54:39;82.50;;;11.40;;
75851;SDS011;64500;52.632;20.656;2022-12-07T07:57:06;83.70;;;11.90;;
75851;SDS011;64500;52.632;20.656;2022-12-07T07:59:33;72.40;;;12.70;;
75851;SDS011;64500;52.632;20.656;2022-12-07T08:02:00;85.00;;;12.60;;
75851;SDS011;64500;52.632;20.656;2022-12-07T08:04:27;70.70;;;11.80;;
75851;SDS011;64500;52.632;20.656;2022-12-07T08:06:54;59.00;;;11.20;;
75851;SDS011;64500;52.632;20.656;2022-12-07T08:09:21;58.20;;;11.10;;
75851;SDS011;64500;52.632;20.656;2022-12-07T08:11:48;65.80;;;11.70;;
75851;SDS011;64500;52.632;20.656;2022-12-07T08:14:15;54.10;;;10.80;;
75851;SDS011;64500;52.632;20.656;2022-12-07T08:16:42;43.40;;;10.40;;
75851;SDS011;64500;52.632;20.656;2022-12-07T08:19:09;43.20;;;9.60;;
75851;SDS011;64500;52.632;20.656;2022-12-07T08:21:36;38.30;;;10.40;;
75851;SDS011;64500;52.632;20.656;2022-12-07T08:24:04;39.10;;;9.00;;
75851;SDS011;64500;52.632;20.656;2022-12-07T08:26:32;37.80;;;10.50;;
75851;SDS011;64500;52.632;20.656;2022-12-07T08:29:00;31.40;;;9.70;;
75851;SDS011;64500;52.632;20.656;2022-12-07T08:31:28;25.80;;;8.20;;
75851;SDS011;64500;52.632;20.656;2022-12-07T08:33:55;33.30;;;9.60;;
75851;SDS011;64500;52.632;20.656;2022-12-07T08:36:23;20.90;;;8.60;;
75851;SDS011;64500;52.632;20.656;2022-12-07T08:38:50;25.20;;;9.10;;
75851;SDS011;64500;52.632;20.656;2022-12-07T08:41:17;19.80;;;8.70;;
75851;SDS011;64500;52.632;20.656;2022-12-07T08:43:44;19.80;;;8.40;;
75851;SDS011;64500;52.632;20.656;2022-12-07T08:46:13;19.80;;;9.10;;
75851;SDS011;64500;52.632;20.656;2022-12-07T08:48:46;18.60;;;9.40;;
75851;SDS011;64500;52.632;20.656;2022-12-07T08:51:18;19.40;;;9.20;;
75851;SDS011;64500;52.632;20.656;2022-12-07T08:53:47;16.90;;;9.00;;
75851;SDS011;64500;52.632;20.656;2022-12-07T08:56:15;17.20;;;9.10;;
75851;SDS011;64500;52.632;20.656;2022-12-07T08:58:43;14.90;;;8.90;;
75851;SDS011;64500;52.632;20.656;2022-12-07T09:01:10;16.70;;;9.80;;
75851;SDS011;64500;52.632;20.656;2022-12-07T09:03:37;17.60;;;9.70;;
75851;SDS011;64500;52.632;20.656;2022-12-07T09:06:05;17.50;;;9.70;;
75851;SDS011;64500;52.632;20.656;2022-12-07T09:08:40;17.60;;;9.60;;
75851;SDS011;64500;52.632;20.656;2022-12-07T09:11:11;19.40;;;9.60;;
75851;SDS011;64500;52.632;20.656;2022-12-07T09:13:38;16.70;;;9.20;;
75851;SDS011;64500;52.632;20.656;2022-12-07T09:16:05;16.90;;;9.70;;
75851;SDS011;64500;52.632;20.656;2022-12-07T09:18:33;16.40;;;9.70;;
75851;SDS011;64500;52.632;20.656;2022-12-07T09:21:00;15.40;;;9.40;;
75851;SDS011;64500;52.632;20.656;2022-12-07T09:23:27;17.20;;;9.00;;
75851;SDS011;64500;52.632;20.656;2022-12-07T09:25:54;15.10;;;8.90;;
75851;SDS011;64500;52.632;20.656;2022-12-07T09:28:21;18.20;;;9.90;;
75851;SDS011;64500;52.632;20.656;2022-12-07T09:30:49;15.60;;;8.80;;
75851;SDS011;64500;52.632;20.656;2022-12-07T09:33:16;15.90;;;8.80;;
75851;SDS011;64500;52.632;20.656;2022-12-07T09:35:47;16.70;;;8.90;;
75851;SDS011;64500;52.632;20.656;2022-12-07T09:38:15;17.20;;;9.00;;
75851;SDS011;64500;52.632;20.656;2022-12-07T09:40:43;18.30;;;8.70;;
75851;SDS011;64500;52.632;20.656;2022-12-07T09:43:14;15.50;;;8.20;;
75851;SDS011;64500;52.632;20.656;2022-12-07T09:45:43;15.60;;;8.00;;
75851;SDS011;64500;52.632;20.656;2022-12-07T09:48:16;15.80;;;8.30;;
75851;SDS011;64500;52.632;20.656;2022-12-07T09:50:46;15.70;;;8.20;;
75851;SDS011;64500;52.632;20.656;2022-12-07T09:53:19;16.60;;;7.90;;
75851;SDS011;64500;52.632;20.656;2022-12-07T09:55:54;15.50;;;7.90;;
75851;SDS011;64500;52.632;20.656;2022-12-07T09:58:25;15.30;;;8.40;;
75851;SDS011;64500;52.632;20.656;2022-12-07T10:00:53;17.10;;;8.40;;
75851;SDS011;64500;52.632;20.656;2022-12-07T10:03:26;15.90;;;7.60;;
75851;SDS011;64500;52.632;20.656;2022-12-07T10:05:55;17.40;;;7.60;;
75851;SDS011;64500;52.632;20.656;2022-12-07T10:08:24;16.10;;;7.80;;
75851;SDS011;64500;52.632;20.656;2022-12-07T10:10:52;16.90;;;7.70;;
75851;SDS011;64500;52.632;20.656;2022-12-07T10:13:35;16.50;;;8.40;;
75851;SDS011;64500;52.632;20.656;2022-12-07T10:16:06;16.80;;;8.20;;
75851;SDS011;64500;52.632;20.656;2022-12-07T10:18:54;15.80;;;7.70;;
75851;SDS011;64500;52.632;20.656;2022-12-07T10:21:26;16.60;;;9.00;;
75851;SDS011;64500;52.632;20.656;2022-12-07T10:24:01;16.70;;;8.40;;
75851;SDS011;64500;52.632;20.656;2022-12-07T10:26:35;16.90;;;8.60;;
75851;SDS011;64500;52.632;20.656;2022-12-07T10:29:12;16.40;;;8.30;;
75851;SDS011;64500;52.632;20.656;2022-12-07T10:31:45;18.70;;;8.60;;
75851;SDS011;64500;52.632;20.656;2022-12-07T10:34:26;16.90;;;8.30;;
75851;SDS011;64500;52.632;20.656;2022-12-07T10:39:54;16.70;;;8.20;;
75851;SDS011;64500;52.632;20.656;2022-12-07T10:42:27;19.20;;;8.40;;
75851;SDS011;64500;52.632;20.656;2022-12-07T10:47:49;17.00;;;9.10;;
75851;SDS011;64500;52.632;20.656;2022-12-07T11:07:38;17.80;;;9.60;;
75851;SDS011;64500;52.632;20.656;2022-12-07T11:21:45;16.60;;;9.80;;
75851;SDS011;64500;52.632;20.656;2022-12-07T11:24:32;16.50;;;9.40;;
75851;SDS011;64500;52.632;20.656;2022-12-07T11:27:19;17.80;;;9.00;;
75851;SDS011;64500;52.632;20.656;2022-12-07T11:35:39;15.70;;;9.10;;
75851;SDS011;64500;52.632;20.656;2022-12-07T11:38:10;16.20;;;9.40;;
75851;SDS011;64500;52.632;20.656;2022-12-07T11:40:43;16.40;;;9.40;;
75851;SDS011;64500;52.632;20.656;2022-12-07T11:43:21;17.80;;;9.80;;
75851;SDS011;64500;52.632;20.656;2022-12-07T11:51:29;19.70;;;9.40;;
75851;SDS011;64500;52.632;20.656;2022-12-07T11:54:03;16.90;;;10.10;;
75851;SDS011;64500;52.632;20.656;2022-12-07T11:56:39;15.40;;;9.30;;
75851;SDS011;64500;52.632;20.656;2022-12-07T11:59:29;17.00;;;9.70;;
75851;SDS011;64500;52.632;20.656;2022-12-07T12:02:13;16.60;;;9.20;;
75851;SDS011;64500;52.632;20.656;2022-12-07T12:05:26;14.10;;;8.60;;
75851;SDS011;64500;52.632;20.656;2022-12-07T12:07:41;16.50;;;9.20;;
75851;SDS011;64500;52.632;20.656;2022-12-07T12:10:17;15.10;;;9.20;;
75851;SDS011;64500;52.632;20.656;2022-12-07T12:16:12;14.10;;;8.50;;
75851;SDS011;64500;52.632;20.656;2022-12-07T12:21:40;14.10;;;8.30;;
75851;SDS011;64500;52.632;20.656;2022-12-07T12:24:18;12.70;;;8.50;;
75851;SDS011;64500;52.632;20.656;2022-12-07T12:26:53;13.20;;;8.20;;
75851;SDS011;64500;52.632;20.656;2022-12-07T12:29:30;13.00;;;8.40;;
75851;SDS011;64500;52.632;20.656;2022-12-07T12:32:04;14.00;;;8.90;;
75851;SDS011;64500;52.632;20.656;2022-12-07T12:37:38;13.40;;;8.10;;
75851;SDS011;64500;52.632;20.656;2022-12-07T12:42:47;14.00;;;8.30;;
75851;SDS011;64500;52.632;20.656;2022-12-07T12:45:24;14.90;;;8.50;;
75851;SDS011;64500;52.632;20.656;2022-12-07T12:47:57;12.70;;;8.10;;
75851;SDS011;64500;52.632;20.656;2022-12-07T12:52:55;14.40;;;8.10;;
75851;SDS011;64500;52.632;20.656;2022-12-07T12:58:41;15.10;;;8.70;;
75851;SDS011;64500;52.632;20.656;2022-12-07T13:03:59;14.10;;;8.30;;
75851;SDS011;64500;52.632;20.656;2022-12-07T13:08:54;14.10;;;9.00;;
75851;SDS011;64500;52.632;20.656;2022-12-07T13:17:08;13.70;;;8.80;;
75851;SDS011;64500;52.632;20.656;2022-12-07T13:19:55;14.10;;;8.60;;
75851;SDS011;64500;52.632;20.656;2022-12-07T13:27:44;14.80;;;8.60;;
75851;SDS011;64500;52.632;20.656;2022-12-07T13:30:19;15.90;;;8.40;;
75851;SDS011;64500;52.632;20.656;2022-12-07T13:32:51;14.50;;;8.70;;
75851;SDS011;64500;52.632;20.656;2022-12-07T13:35:30;15.70;;;9.10;;
75851;SDS011;64500;52.632;20.656;2022-12-07T13:38:04;16.10;;;8.80;;
75851;SDS011;64500;52.632;20.656;2022-12-07T13:40:41;15.30;;;9.40;;
75851;SDS011;64500;52.632;20.656;2022-12-07T13:43:12;15.80;;;9.20;;
75851;SDS011;64500;52.632;20.656;2022-12-07T13:45:41;15.00;;;9.20;;
75851;SDS011;64500;52.632;20.656;2022-12-07T13:48:36;15.40;;;9.70;;
75851;SDS011;64500;52.632;20.656;2022-12-07T13:51:14;14.60;;;9.20;;
75851;SDS011;64500;52.632;20.656;2022-12-07T13:53:55;17.10;;;9.40;;
75851;SDS011;64500;52.632;20.656;2022-12-07T13:56:35;15.40;;;9.50;;
75851;SDS011;64500;52.632;20.656;2022-12-07T13:59:03;15.90;;;9.30;;
75851;SDS011;64500;52.632;20.656;2022-12-07T14:01:37;14.50;;;8.90;;
75851;SDS011;64500;52.632;20.656;2022-12-07T14:06:59;15.80;;;9.80;;
75851;SDS011;64500;52.632;20.656;2022-12-07T14:09:29;16.30;;;10.20;;
75851;SDS011;64500;52.632;20.656;2022-12-07T14:11:57;15.10;;;9.20;;
75851;SDS011;64500;52.632;20.656;2022-12-07T14:14:25;15.20;;;9.30;;
75851;SDS011;64500;52.632;20.656;2022-12-07T14:16:56;17.50;;;9.10;;
75851;SDS011;64500;52.632;20.656;2022-12-07T14:19:45;14.30;;;9.10;;
75851;SDS011;64500;52.632;20.656;2022-12-07T14:25:00;13.80;;;9.00;;
75851;SDS011;64500;52.632;20.656;2022-12-07T14:27:32;14.60;;;9.30;;
75851;SDS011;64500;52.632;20.656;2022-12-07T14:30:01;15.30;;;9.00;;
75851;SDS011;64500;52.632;20.656;2022-12-07T14:32:29;14.40;;;8.70;;
75851;SDS011;64500;52.632;20.656;2022-12-07T14:35:02;15.70;;;9.60;;
75851;SDS011;64500;52.632;20.656;2022-12-07T14:37:40;14.80;;;9.40;;
75851;SDS011;64500;52.632;20.656;2022-12-07T14:40:20;13.50;;;8.70;;
75851;SDS011;64500;52.632;20.656;2022-12-07T14:42:53;14.40;;;8.60;;
75851;SDS011;64500;52.632;20.656;2022-12-07T14:45:29;14.30;;;9.20;;
75851;SDS011;64500;52.632;20.656;2022-12-07T14:47:57;15.70;;;8.70;;
75851;SDS011;64500;52.632;20.656;2022-12-07T14:50:24;16.20;;;9.40;;
75851;SDS011;64500;52.632;20.656;2022-12-07T14:52:52;14.30;;;9.30;;
75851;SDS011;64500;52.632;20.656;2022-12-07T14:55:23;15.10;;;9.20;;
75851;SDS011;64500;52.632;20.656;2022-12-07T14:57:55;16.50;;;9.90;;
75851;SDS011;64500;52.632;20.656;2022-12-07T15:00:23;16.50;;;9.40;;
75851;SDS011;64500;52.632;20.656;2022-12-07T15:02:53;15.60;;;9.40;;
75851;SDS011;64500;52.632;20.656;2022-12-07T15:05:20;15.30;;;9.60;;
75851;SDS011;64500;52.632;20.656;2022-12-07T15:07:49;14.80;;;9.60;;
75851;SDS011;64500;52.632;20.656;2022-12-07T15:10:23;14.10;;;9.20;;
75851;SDS011;64500;52.632;20.656;2022-12-07T15:12:57;14.70;;;9.50;;
75851;SDS011;64500;52.632;20.656;2022-12-07T15:15:47;15.80;;;9.60;;
75851;SDS011;64500;52.632;20.656;2022-12-07T15:18:16;16.20;;;9.40;;
75851;SDS011;64500;52.632;20.656;2022-12-07T15:20:43;14.40;;;9.10;;
75851;SDS011;64500;52.632;20.656;2022-12-07T15:23:11;15.70;;;10.40;;
75851;SDS011;64500;52.632;20.656;2022-12-07T15:25:42;16.00;;;10.40;;
75851;SDS011;64500;52.632;20.656;2022-12-07T15:28:11;15.50;;;10.00;;
75851;SDS011;64500;52.632;20.656;2022-12-07T15:30:38;15.10;;;9.20;;
75851;SDS011;64500;52.632;20.656;2022-12-07T15:33:07;17.70;;;10.10;;
75851;SDS011;64500;52.632;20.656;2022-12-07T15:35:38;15.80;;;9.90;;
75851;SDS011;64500;52.632;20.656;2022-12-07T15:38:09;14.70;;;10.10;;
75851;SDS011;64500;52.632;20.656;2022-12-07T15:40:36;15.40;;;10.00;;
75851;SDS011;64500;52.632;20.656;2022-12-07T15:43:03;17.20;;;11.00;;
75851;SDS011;64500;52.632;20.656;2022-12-07T15:45:31;15.00;;;9.60;;
75851;SDS011;64500;52.632;20.656;2022-12-07T15:47:58;16.80;;;10.80;;
75851;SDS011;64500;52.632;20.656;2022-12-07T15:50:25;15.20;;;10.00;;
75851;SDS011;64500;52.632;20.656;2022-12-07T15:52:52;16.60;;;10.80;;
75851;SDS011;64500;52.632;20.656;2022-12-07T15:55:19;17.20;;;11.50;;
75851;SDS011;64500;52.632;20.656;2022-12-07T15:57:47;19.50;;;12.20;;
75851;SDS011;64500;52.632;20.656;2022-12-07T16:00:16;16.60;;;11.20;;
75851;SDS011;64500;52.632;20.656;2022-12-07T16:02:43;17.60;;;10.70;;
75851;SDS011;64500;52.632;20.656;2022-12-07T16:05:10;16.80;;;11.10;;
75851;SDS011;64500;52.632;20.656;2022-12-07T16:07:38;17.60;;;10.80;;
75851;SDS011;64500;52.632;20.656;2022-12-07T16:10:05;17.00;;;10.90;;
75851;SDS011;64500;52.632;20.656;2022-12-07T16:12:33;17.90;;;11.20;;
75851;SDS011;64500;52.632;20.656;2022-12-07T16:15:00;18.10;;;11.80;;
75851;SDS011;64500;52.632;20.656;2022-12-07T16:17:27;17.10;;;11.30;;
75851;SDS011;64500;52.632;20.656;2022-12-07T16:19:54;18.00;;;11.60;;
75851;SDS011;64500;52.632;20.656;2022-12-07T16:22:21;18.20;;;11.30;;
75851;SDS011;64500;52.632;20.656;2022-12-07T16:24:47;18.50;;;11.90;;
75851;SDS011;64500;52.632;20.656;2022-12-07T16:27:14;17.60;;;11.50;;
75851;SDS011;64500;52.632;20.656;2022-12-07T16:29:43;17.60;;;10.90;;
75851;SDS011;64500;52.632;20.656;2022-12-07T16:32:10;19.60;;;12.40;;
75851;SDS011;64500;52.632;20.656;2022-12-07T16:34:37;19.20;;;12.30;;
75851;SDS011;64500;52.632;20.656;2022-12-07T16:37:05;18.40;;;12.00;;
75851;SDS011;64500;52.632;20.656;2022-12-07T16:39:33;15.50;;;9.80;;
75851;SDS011;64500;52.632;20.656;2022-12-07T16:42:01;17.80;;;11.60;;